sensor_id;sensor_type;location;lat;lon;timestamp;pressure;altitude;pressure_sealevel;temperature;humidity
69574;BME280;62840;52.366;5.980;2023-03-03T00:02:28;102488.16;;;1.99;70.09
69574;BME280;62840;52.366;5.980;2023-03-03T00:05:03;102484.69;;;1.97;69.99
69574;BME280;62840;52.366;5.980;2023-03-03T00:07:32;102482.03;;;1.99;70.03
69574;BME280;62840;52.366;5.980;2023-03-03T00:10:00;102482.94;;;1.98;70.22
69574;BME280;62840;52.366;5.980;2023-03-03T00:12:42;102487.28;;;1.99;70.24
69574;BME280;62840;52.366;5.980;2023-03-03T00:15:23;102490.84;;;1.98;70.21
69574;BME280;62840;52.366;5.980;2023-03-03T00:18:16;102483.81;;;1.97;70.42
69574;BME280;62840;52.366;5.980;2023-03-03T00:20:48;102497.81;;;1.99;70.18
69574;BME280;62840;52.366;5.980;2023-03-03T00:23:28;102482.03;;;1.99;70.18
69574;BME280;62840;52.366;5.980;2023-03-03T00:26:21;102490.75;;;2.01;70.25
69574;BME280;62840;52.366;5.980;2023-03-03T00:31:59;102484.69;;;1.97;70.40
69574;BME280;62840;52.366;5.980;2023-03-03T00:34:50;102489.13;;;1.95;70.37
69574;BME280;62840;52.366;5.980;2023-03-03T00:37:30;102491.78;;;1.95;70.39
69574;BME280;62840;52.366;5.980;2023-03-03T00:40:21;102495.22;;;1.97;70.49
69574;BME280;62840;52.366;5.980;2023-03-03T00:43:14;102489.03;;;2.00;70.56
69574;BME280;62840;52.366;5.980;2023-03-03T00:46:11;102492.50;;;2.02;70.60
69574;BME280;62840;52.366;5.980;2023-03-03T00:48:46;102495.19;;;1.99;70.74
69574;BME280;62840;52.366;5.980;2023-03-03T00:51:31;102494.31;;;2.00;70.75
69574;BME280;62840;52.366;5.980;2023-03-03T00:54:11;102502.97;;;2.05;70.45
69574;BME280;62840;52.366;5.980;2023-03-03T00:56:54;102497.69;;;2.05;70.50
69574;BME280;62840;52.366;5.980;2023-03-03T00:59:28;102493.31;;;2.05;70.65
69574;BME280;62840;52.366;5.980;2023-03-03T01:02:01;102509.91;;;2.09;70.83
69574;BME280;62840;52.366;5.980;2023-03-03T01:04:33;102495.84;;;2.10;70.61
69574;BME280;62840;52.366;5.980;2023-03-03T01:07:05;102498.44;;;2.11;70.69
69574;BME280;62840;52.366;5.980;2023-03-03T01:09:59;102499.22;;;2.15;70.77
69574;BME280;62840;52.366;5.980;2023-03-03T01:12:29;102490.53;;;2.13;70.71
69574;BME280;62840;52.366;5.980;2023-03-03T01:15:11;102491.38;;;2.13;70.49
69574;BME280;62840;52.366;5.980;2023-03-03T01:17:52;102499.22;;;2.15;70.54
69574;BME280;62840;52.366;5.980;2023-03-03T01:20:34;102488.69;;;2.17;70.50
69574;BME280;62840;52.366;5.980;2023-03-03T01:23:04;102493.09;;;2.16;70.84
69574;BME280;62840;52.366;5.980;2023-03-03T01:25:41;102492.16;;;2.17;70.46
69574;BME280;62840;52.366;5.980;2023-03-03T01:28:11;102488.69;;;2.15;70.76
69574;BME280;62840;52.366;5.980;2023-03-03T01:30:40;102479.94;;;2.16;70.76
69574;BME280;62840;52.366;5.980;2023-03-03T01:33:16;102486.06;;;2.15;70.71
69574;BME280;62840;52.366;5.980;2023-03-03T01:36:03;102479.84;;;2.19;70.64
69574;BME280;62840;52.366;5.980;2023-03-03T01:38:37;102484.19;;;2.22;70.67
69574;BME280;62840;52.366;5.980;2023-03-03T01:41:13;102488.53;;;2.24;70.62
69574;BME280;62840;52.366;5.980;2023-03-03T01:43:45;102486.72;;;2.26;70.48
69574;BME280;62840;52.366;5.980;2023-03-03T01:46:51;102477.94;;;2.27;70.47
69574;BME280;62840;52.366;5.980;2023-03-03T01:49:59;102487.53;;;2.28;70.57
69574;BME280;62840;52.366;5.980;2023-03-03T01:52:42;102493.72;;;2.27;70.58
69574;BME280;62840;52.366;5.980;2023-03-03T01:55:15;102491.94;;;2.29;70.69
69574;BME280;62840;52.366;5.980;2023-03-03T01:58:04;102489.28;;;2.29;70.51
69574;BME280;62840;52.366;5.980;2023-03-03T02:00:40;102488.38;;;2.30;70.48
69574;BME280;62840;52.366;5.980;2023-03-03T02:03:27;102488.38;;;2.30;70.46
69574;BME280;62840;52.366;5.980;2023-03-03T02:06:07;102491.09;;;2.27;70.42
69574;BME280;62840;52.366;5.980;2023-03-03T02:08:47;102486.78;;;2.23;70.58
69574;BME280;62840;52.366;5.980;2023-03-03T02:11:28;102487.72;;;2.21;70.68
69574;BME280;62840;52.366;5.980;2023-03-03T02:14:13;102486.88;;;2.20;70.53
69574;BME280;62840;52.366;5.980;2023-03-03T02:16:44;102474.66;;;2.16;70.63
69574;BME280;62840;52.366;5.980;2023-03-03T02:19:32;102484.38;;;2.12;70.61
69574;BME280;62840;52.366;5.980;2023-03-03T02:22:12;102484.44;;;2.09;70.63
69574;BME280;62840;52.366;5.980;2023-03-03T02:24:48;102485.38;;;2.07;70.73
69574;BME280;62840;52.366;5.980;2023-03-03T02:27:30;102482.78;;;2.04;70.63
69574;BME280;62840;52.366;5.980;2023-03-03T02:30:20;102473.19;;;2.03;70.52
69574;BME280;62840;52.366;5.980;2023-03-03T02:33:03;102476.72;;;2.02;70.86
69574;BME280;62840;52.366;5.980;2023-03-03T02:35:32;102480.16;;;2.04;70.64
69574;BME280;62840;52.366;5.980;2023-03-03T02:38:10;102477.53;;;2.04;70.73
69574;BME280;62840;52.366;5.980;2023-03-03T02:40:58;102484.56;;;2.03;70.61
69574;BME280;62840;52.366;5.980;2023-03-03T02:43:37;102478.53;;;2.00;70.67
69574;BME280;62840;52.366;5.980;2023-03-03T02:46:10;102476.75;;;2.00;70.68
69574;BME280;62840;52.366;5.980;2023-03-03T02:48:37;102481.06;;;2.03;70.33
69574;BME280;62840;52.366;5.980;2023-03-03T02:51:03;102473.19;;;2.03;70.44
69574;BME280;62840;52.366;5.980;2023-03-03T02:53:30;102474.84;;;2.07;70.35
69574;BME280;62840;52.366;5.980;2023-03-03T02:55:55;102474.84;;;2.07;70.25
69574;BME280;62840;52.366;5.980;2023-03-03T02:58:21;102482.69;;;2.08;70.46
69574;BME280;62840;52.366;5.980;2023-03-03T03:00:50;102473.00;;;2.12;70.21
69574;BME280;62840;52.366;5.980;2023-03-03T03:03:15;102469.47;;;2.13;70.47
69574;BME280;62840;52.366;5.980;2023-03-03T03:05:41;102475.59;;;2.13;70.35
69574;BME280;62840;52.366;5.980;2023-03-03T03:08:07;102478.19;;;2.15;70.37
69574;BME280;62840;52.366;5.980;2023-03-03T03:10:34;102474.66;;;2.16;70.51
69574;BME280;62840;52.366;5.980;2023-03-03T03:13:01;102472.91;;;2.15;70.65
69574;BME280;62840;52.366;5.980;2023-03-03T03:15:26;102481.72;;;2.14;70.36
69574;BME280;62840;52.366;5.980;2023-03-03T03:17:56;102483.44;;;2.15;70.32
69574;BME280;62840;52.366;5.980;2023-03-03T03:20:22;102482.59;;;2.15;70.59
69574;BME280;62840;52.366;5.980;2023-03-03T03:22:48;102483.50;;;2.13;70.44
69574;BME280;62840;52.366;5.980;2023-03-03T03:25:14;102480.00;;;2.13;70.56
69574;BME280;62840;52.366;5.980;2023-03-03T03:27:40;102485.25;;;2.13;70.75
69574;BME280;62840;52.366;5.980;2023-03-03T03:30:08;102482.63;;;2.13;70.63
69574;BME280;62840;52.366;5.980;2023-03-03T03:32:35;102492.28;;;2.12;70.58
69574;BME280;62840;52.366;5.980;2023-03-03T03:35:04;102484.38;;;2.12;70.66
69574;BME280;62840;52.366;5.980;2023-03-03T03:37:31;102492.25;;;2.14;70.90
69574;BME280;62840;52.366;5.980;2023-03-03T03:39:56;102495.78;;;2.13;70.69
69574;BME280;62840;52.366;5.980;2023-03-03T03:42:25;102488.69;;;2.15;70.55
69574;BME280;62840;52.366;5.980;2023-03-03T03:44:51;102495.78;;;2.13;70.71
69574;BME280;62840;52.366;5.980;2023-03-03T03:47:17;102497.59;;;2.11;70.79
69574;BME280;62840;52.366;5.980;2023-03-03T03:49:43;102487.06;;;2.11;70.98
69574;BME280;62840;52.366;5.980;2023-03-03T03:52:11;102493.16;;;2.13;70.97
69574;BME280;62840;52.366;5.980;2023-03-03T03:54:37;102497.44;;;2.17;70.98
69574;BME280;62840;52.366;5.980;2023-03-03T03:57:05;102490.44;;;2.16;70.90
69574;BME280;62840;52.366;5.980;2023-03-03T03:59:33;102496.50;;;2.20;70.94
69574;BME280;62840;52.366;5.980;2023-03-03T04:01:59;102490.38;;;2.19;70.69
69574;BME280;62840;52.366;5.980;2023-03-03T04:04:27;102491.25;;;2.20;70.61
69574;BME280;62840;52.366;5.980;2023-03-03T04:06:53;102495.59;;;2.22;70.77
69574;BME280;62840;52.366;5.980;2023-03-03T04:09:21;102499.09;;;2.21;70.76
69574;BME280;62840;52.366;5.980;2023-03-03T04:11:47;102496.44;;;2.24;70.87
69574;BME280;62840;52.366;5.980;2023-03-03T04:14:13;102499.06;;;2.24;71.02
69574;BME280;62840;52.366;5.980;2023-03-03T04:16:38;102491.19;;;2.23;70.76
69574;BME280;62840;52.366;5.980;2023-03-03T04:19:04;102488.59;;;2.21;70.92
69574;BME280;62840;52.366;5.980;2023-03-03T04:21:30;102499.09;;;2.21;70.90
69574;BME280;62840;52.366;5.980;2023-03-03T04:23:59;102495.59;;;2.22;71.01
69574;BME280;62840;52.366;5.980;2023-03-03T04:26:27;102498.19;;;2.24;70.95
69574;BME280;62840;52.366;5.980;2023-03-03T04:31:35;102500.72;;;2.28;70.83
69574;BME280;62840;52.366;5.980;2023-03-03T04:34:11;102495.41;;;2.31;70.91
69574;BME280;62840;52.366;5.980;2023-03-03T04:36:44;102500.66;;;2.31;71.04
69574;BME280;62840;52.366;5.980;2023-03-03T04:39:14;102495.41;;;2.31;71.13
69574;BME280;62840;52.366;5.980;2023-03-03T04:42:09;102497.94;;;2.34;71.14
69574;BME280;62840;52.366;5.980;2023-03-03T04:44:39;102498.88;;;2.33;71.13
69574;BME280;62840;52.366;5.980;2023-03-03T04:47:14;102493.59;;;2.33;70.90
69574;BME280;62840;52.366;5.980;2023-03-03T04:49:49;102498.88;;;2.33;71.22
69574;BME280;62840;52.366;5.980;2023-03-03T04:52:21;102501.44;;;2.37;70.90
69574;BME280;62840;52.366;5.980;2023-03-03T04:55:02;102499.66;;;2.37;71.12
69574;BME280;62840;52.366;5.980;2023-03-03T04:57:41;102499.66;;;2.37;71.18
69574;BME280;62840;52.366;5.980;2023-03-03T05:00:16;102491.81;;;2.36;71.19
69574;BME280;62840;52.366;5.980;2023-03-03T05:02:49;102496.16;;;2.37;71.20
69574;BME280;62840;52.366;5.980;2023-03-03T05:05:30;102493.53;;;2.37;71.11
69574;BME280;62840;52.366;5.980;2023-03-03T05:08:00;102494.44;;;2.36;71.19
69574;BME280;62840;52.366;5.980;2023-03-03T05:10:26;102493.53;;;2.37;71.16
69574;BME280;62840;52.366;5.980;2023-03-03T05:13:04;102488.25;;;2.38;71.06
69574;BME280;62840;52.366;5.980;2023-03-03T05:15:38;102497.00;;;2.39;71.28
69574;BME280;62840;52.366;5.980;2023-03-03T05:18:08;102496.06;;;2.40;71.41
69574;BME280;62840;52.366;5.980;2023-03-03T05:20:43;102496.91;;;2.42;71.18
69574;BME280;62840;52.366;5.980;2023-03-03T05:23:24;102495.13;;;2.44;71.15
69574;BME280;62840;52.366;5.980;2023-03-03T05:26:03;102502.19;;;2.42;71.22
69574;BME280;62840;52.366;5.980;2023-03-03T05:28:38;102494.28;;;2.42;71.34
69574;BME280;62840;52.366;5.980;2023-03-03T05:31:11;102500.47;;;2.41;71.36
69574;BME280;62840;52.366;5.980;2023-03-03T05:33:38;102497.78;;;2.42;71.28
69574;BME280;62840;52.366;5.980;2023-03-03T05:36:06;102491.66;;;2.42;71.35
69574;BME280;62840;52.366;5.980;2023-03-03T05:38:36;102500.47;;;2.41;71.65
69574;BME280;62840;52.366;5.980;2023-03-03T05:41:14;102497.00;;;2.39;71.60
69574;BME280;62840;52.366;5.980;2023-03-03T05:44:03;102501.34;;;2.40;71.68
69574;BME280;62840;52.366;5.980;2023-03-03T05:46:53;102505.72;;;2.41;71.65
69574;BME280;62840;52.366;5.980;2023-03-03T05:49:37;102502.19;;;2.42;71.71
69574;BME280;62840;52.366;5.980;2023-03-03T05:52:07;102506.56;;;2.43;71.75
69574;BME280;62840;52.366;5.980;2023-03-03T05:54:41;102508.28;;;2.44;71.55
69574;BME280;62840;52.366;5.980;2023-03-03T05:57:13;102503.94;;;2.43;71.73
69574;BME280;62840;52.366;5.980;2023-03-03T05:59:44;102507.41;;;2.45;71.60
69574;BME280;62840;52.366;5.980;2023-03-03T06:02:27;102514.38;;;2.46;71.70
69574;BME280;62840;52.366;5.980;2023-03-03T06:05:00;102512.59;;;2.48;71.74
69574;BME280;62840;52.366;5.980;2023-03-03T06:07:30;102505.53;;;2.50;71.78
69574;BME280;62840;52.366;5.980;2023-03-03T06:10:13;102501.97;;;2.51;71.91
69574;BME280;62840;52.366;5.980;2023-03-03T06:12:52;102509.00;;;2.52;71.78
69574;BME280;62840;52.366;5.980;2023-03-03T06:15:31;102506.34;;;2.52;71.87
69574;BME280;62840;52.366;5.980;2023-03-03T06:17:59;102509.00;;;2.52;72.12
69574;BME280;62840;52.366;5.980;2023-03-03T06:20:40;102512.50;;;2.51;71.96
69574;BME280;62840;52.366;5.980;2023-03-03T06:23:09;102509.00;;;2.52;71.96
69574;BME280;62840;52.366;5.980;2023-03-03T06:25:40;102512.47;;;2.54;71.77
69574;BME280;62840;52.366;5.980;2023-03-03T06:28:06;102510.66;;;2.56;71.73
69574;BME280;62840;52.366;5.980;2023-03-03T06:30:40;102515.84;;;2.59;72.02
69574;BME280;62840;52.366;5.980;2023-03-03T06:33:16;102505.31;;;2.59;72.07
69574;BME280;62840;52.366;5.980;2023-03-03T06:35:51;102513.19;;;2.61;71.91
69574;BME280;62840;52.366;5.980;2023-03-03T06:38:25;102510.50;;;2.62;71.92
69574;BME280;62840;52.366;5.980;2023-03-03T06:41:01;102515.78;;;2.62;72.11
69574;BME280;62840;52.366;5.980;2023-03-03T06:43:37;102510.50;;;2.62;72.15
69574;BME280;62840;52.366;5.980;2023-03-03T06:46:20;102509.63;;;2.63;72.21
69574;BME280;62840;52.366;5.980;2023-03-03T06:48:48;102520.06;;;2.66;72.30
69574;BME280;62840;52.366;5.980;2023-03-03T06:51:29;102519.19;;;2.67;72.00
69574;BME280;62840;52.366;5.980;2023-03-03T06:54:01;102514.81;;;2.66;72.21
69574;BME280;62840;52.366;5.980;2023-03-03T06:56:46;102523.53;;;2.68;72.09
69574;BME280;62840;52.366;5.980;2023-03-03T06:59:45;102526.94;;;2.73;72.37
69574;BME280;62840;52.366;5.980;2023-03-03T07:02:27;102531.31;;;2.74;72.33
69574;BME280;62840;52.366;5.980;2023-03-03T07:04:59;102536.59;;;2.74;72.47
69574;BME280;62840;52.366;5.980;2023-03-03T07:07:33;102547.03;;;2.78;72.55
69574;BME280;62840;52.366;5.980;2023-03-03T07:10:24;102539.97;;;2.80;72.28
69574;BME280;62840;52.366;5.980;2023-03-03T07:13:14;102548.72;;;2.82;72.52
69574;BME280;62840;52.366;5.980;2023-03-03T07:15:44;102548.72;;;2.82;72.44
69574;BME280;62840;52.366;5.980;2023-03-03T07:18:39;102544.28;;;2.84;72.50
69574;BME280;62840;52.366;5.980;2023-03-03T07:21:35;102545.13;;;2.86;72.66
69574;BME280;62840;52.366;5.980;2023-03-03T07:24:21;102552.06;;;2.90;72.34
69574;BME280;62840;52.366;5.980;2023-03-03T07:27:10;102559.03;;;2.91;72.31
69574;BME280;62840;52.366;5.980;2023-03-03T07:29:54;102561.59;;;2.94;72.55
69574;BME280;62840;52.366;5.980;2023-03-03T07:32:41;102567.69;;;2.96;72.44
69574;BME280;62840;52.366;5.980;2023-03-03T07:35:32;102572.91;;;2.99;72.54
69574;BME280;62840;52.366;5.980;2023-03-03T07:38:19;102576.44;;;2.98;72.52
69574;BME280;62840;52.366;5.980;2023-03-03T07:41:09;102578.09;;;3.02;72.42
69574;BME280;62840;52.366;5.980;2023-03-03T07:43:51;102583.28;;;3.05;72.44
69574;BME280;62840;52.366;5.980;2023-03-03T07:46:42;102585.03;;;3.08;72.60
69574;BME280;62840;52.366;5.980;2023-03-03T07:49:34;102596.34;;;3.11;72.30
69574;BME280;62840;52.366;5.980;2023-03-03T07:52:20;102599.72;;;3.16;72.42
69574;BME280;62840;52.366;5.980;2023-03-03T07:55:16;102605.84;;;3.18;72.41
69574;BME280;62840;52.366;5.980;2023-03-03T08:03:56;102603.03;;;3.26;72.42
69574;BME280;62840;52.366;5.980;2023-03-03T08:06:41;102609.09;;;3.30;72.55
69574;BME280;62840;52.366;5.980;2023-03-03T08:09:45;102607.22;;;3.35;72.30
69574;BME280;62840;52.366;5.980;2023-03-03T08:12:23;102610.69;;;3.37;72.52
69574;BME280;62840;52.366;5.980;2023-03-03T08:15:32;102608.91;;;3.39;72.56
69574;BME280;62840;52.366;5.980;2023-03-03T08:18:18;102616.69;;;3.44;72.33
69574;BME280;62840;52.366;5.980;2023-03-03T08:20:53;102623.66;;;3.46;72.32
69574;BME280;62840;52.366;5.980;2023-03-03T08:23:31;102619.22;;;3.48;72.55
69574;BME280;62840;52.366;5.980;2023-03-03T08:26:28;102615.56;;;3.52;72.25
69574;BME280;62840;52.366;5.980;2023-03-03T08:29:19;102620.81;;;3.55;72.37
69574;BME280;62840;52.366;5.980;2023-03-03T08:31:52;102622.47;;;3.59;72.52
69574;BME280;62840;52.366;5.980;2023-03-03T08:34:33;102622.38;;;3.63;72.54
69574;BME280;62840;52.366;5.980;2023-03-03T08:37:09;102619.63;;;3.67;72.55
69574;BME280;62840;52.366;5.980;2023-03-03T08:39:39;102618.66;;;3.70;72.28
69574;BME280;62840;52.366;5.980;2023-03-03T08:42:14;102617.72;;;3.72;72.14
69574;BME280;62840;52.366;5.980;2023-03-03T08:44:44;102616.78;;;3.75;72.36
69574;BME280;62840;52.366;5.980;2023-03-03T08:47:27;102625.47;;;3.80;72.30
69574;BME280;62840;52.366;5.980;2023-03-03T08:49:59;102619.16;;;3.86;72.21
69574;BME280;62840;52.366;5.980;2023-03-03T08:52:29;102626.91;;;3.92;71.96
69574;BME280;62840;52.366;5.980;2023-03-03T08:55:00;102627.66;;;3.97;72.32
69574;BME280;62840;52.366;5.980;2023-03-03T08:57:36;102630.16;;;4.01;71.89
69574;BME280;62840;52.366;5.980;2023-03-03T09:00:04;102626.53;;;4.06;72.11
69574;BME280;62840;52.366;5.980;2023-03-03T09:02:34;102628.22;;;4.10;71.90
69574;BME280;62840;52.366;5.980;2023-03-03T09:05:01;102621.88;;;4.15;71.90
69574;BME280;62840;52.366;5.980;2023-03-03T09:07:32;102614.63;;;4.24;71.87
69574;BME280;62840;52.366;5.980;2023-03-03T09:10:04;102613.59;;;4.29;72.00
69574;BME280;62840;52.366;5.980;2023-03-03T09:12:42;102620.44;;;4.36;71.87
69574;BME280;62840;52.366;5.980;2023-03-03T09:15:22;102621.06;;;4.45;71.79
69574;BME280;62840;52.366;5.980;2023-03-03T09:17:57;102616.53;;;4.50;71.59
69574;BME280;62840;52.366;5.980;2023-03-03T09:20:53;102610.31;;;4.52;71.55
69574;BME280;62840;52.366;5.980;2023-03-03T09:23:34;102616.34;;;4.56;71.33
69574;BME280;62840;52.366;5.980;2023-03-03T09:26:21;102625.03;;;4.61;71.50
69574;BME280;62840;52.366;5.980;2023-03-03T09:29:20;102620.50;;;4.64;71.61
69574;BME280;62840;52.366;5.980;2023-03-03T09:32:01;102616.97;;;4.66;71.17
69574;BME280;62840;52.366;5.980;2023-03-03T09:34:49;102608.97;;;4.67;71.44
69574;BME280;62840;52.366;5.980;2023-03-03T09:37:23;102614.19;;;4.70;71.29
69574;BME280;62840;52.366;5.980;2023-03-03T09:39:58;102610.53;;;4.74;71.19
69574;BME280;62840;52.366;5.980;2023-03-03T09:43:05;102620.16;;;4.77;71.07
69574;BME280;62840;52.366;5.980;2023-03-03T09:46:11;102613.19;;;4.74;71.04
69574;BME280;62840;52.366;5.980;2023-03-03T09:49:06;102619.19;;;4.79;71.04
69574;BME280;62840;52.366;5.980;2023-03-03T09:52:04;102620.06;;;4.80;70.91
69574;BME280;62840;52.366;5.980;2023-03-03T09:55:08;102620.91;;;4.80;71.02
69574;BME280;62840;52.366;5.980;2023-03-03T09:57:58;102618.38;;;4.77;70.82
69574;BME280;62840;52.366;5.980;2023-03-03T10:01:02;102620.91;;;4.80;71.00
69574;BME280;62840;52.366;5.980;2023-03-03T10:07:33;102631.13;;;4.93;70.83
69574;BME280;62840;52.366;5.980;2023-03-03T10:13:58;102623.56;;;5.10;70.97
69574;BME280;62840;52.366;5.980;2023-03-03T10:20:04;102624.88;;;5.25;70.61
69574;BME280;62840;52.366;5.980;2023-03-03T10:22:55;102627.38;;;5.30;70.15
69574;BME280;62840;52.366;5.980;2023-03-03T10:25:53;102622.91;;;5.32;70.18
69574;BME280;62840;52.366;5.980;2023-03-03T10:28:57;102618.31;;;5.37;70.28
69574;BME280;62840;52.366;5.980;2023-03-03T10:32:17;102618.94;;;5.45;70.26
69574;BME280;62840;52.366;5.980;2023-03-03T10:35:21;102618.84;;;5.48;69.67
69574;BME280;62840;52.366;5.980;2023-03-03T10:38:35;102615.09;;;5.55;69.70
69574;BME280;62840;52.366;5.980;2023-03-03T10:41:30;102614.78;;;5.64;69.53
69574;BME280;62840;52.366;5.980;2023-03-03T10:44:25;102619.66;;;5.77;69.78
69574;BME280;62840;52.366;5.980;2023-03-03T10:47:33;102623.59;;;5.92;69.52
69574;BME280;62840;52.366;5.980;2023-03-03T10:50:23;102616.88;;;6.06;69.17
69574;BME280;62840;52.366;5.980;2023-03-03T10:53:18;102621.75;;;6.19;69.04
69574;BME280;62840;52.366;5.980;2023-03-03T10:56:04;102618.59;;;6.33;68.82
69574;BME280;62840;52.366;5.980;2023-03-03T10:59:13;102618.78;;;6.51;68.46
69574;BME280;62840;52.366;5.980;2023-03-03T11:02:00;102618.56;;;6.58;67.47
69574;BME280;62840;52.366;5.980;2023-03-03T11:08:04;102609.81;;;6.79;67.60
69574;BME280;62840;52.366;5.980;2023-03-03T11:11:03;102615.56;;;6.90;67.33
69574;BME280;62840;52.366;5.980;2023-03-03T11:13:56;102612.72;;;6.95;67.20
69574;BME280;62840;52.366;5.980;2023-03-03T11:16:44;102608.41;;;6.92;66.88
69574;BME280;62840;52.366;5.980;2023-03-03T11:19:50;102615.56;;;6.90;67.33
69574;BME280;62840;52.366;5.980;2023-03-03T11:22:38;102612.16;;;6.87;67.24
69574;BME280;62840;52.366;5.980;2023-03-03T11:25:26;102610.47;;;6.84;67.02
69574;BME280;62840;52.366;5.980;2023-03-03T11:28:30;102607.03;;;6.82;66.98
69574;BME280;62840;52.366;5.980;2023-03-03T11:31:34;102603.56;;;6.80;66.49
69574;BME280;62840;52.366;5.980;2023-03-03T11:34:19;102601.84;;;6.79;66.36
69574;BME280;62840;52.366;5.980;2023-03-03T11:37:17;102597.50;;;6.77;66.06
69574;BME280;62840;52.366;5.980;2023-03-03T11:39:57;102597.69;;;6.72;66.20
69574;BME280;62840;52.366;5.980;2023-03-03T11:42:53;102596.88;;;6.70;65.87
69574;BME280;62840;52.366;5.980;2023-03-03T11:45:38;102598.84;;;6.65;65.62
69574;BME280;62840;52.366;5.980;2023-03-03T11:48:20;102592.81;;;6.61;65.85
69574;BME280;62840;52.366;5.980;2023-03-03T11:50:56;102589.84;;;6.69;66.22
69574;BME280;62840;52.366;5.980;2023-03-03T11:53:42;102587.41;;;6.86;65.87
69574;BME280;62840;52.366;5.980;2023-03-03T11:56:37;102583.22;;;7.03;65.16
69574;BME280;62840;52.366;5.980;2023-03-03T11:59:19;102590.00;;;7.10;64.70
69574;BME280;62840;52.366;5.980;2023-03-03T12:02:08;102582.88;;;7.12;64.76
69574;BME280;62840;52.366;5.980;2023-03-03T12:04:56;102579.53;;;7.07;64.29
69574;BME280;62840;52.366;5.980;2023-03-03T12:07:33;102577.13;;;7.01;64.56
69574;BME280;62840;52.366;5.980;2023-03-03T12:10:18;102579.09;;;6.96;64.26
69574;BME280;62840;52.366;5.980;2023-03-03T12:13:00;102576.59;;;6.92;64.52
69574;BME280;62840;52.366;5.980;2023-03-03T12:15:42;102579.91;;;6.98;64.84
69574;BME280;62840;52.366;5.980;2023-03-03T12:18:44;102570.63;;;7.08;64.82
69574;BME280;62840;52.366;5.980;2023-03-03T12:21:36;102573.09;;;7.34;65.03
69574;BME280;62840;52.366;5.980;2023-03-03T12:24:31;102570.25;;;7.61;64.43
69574;BME280;62840;52.366;5.980;2023-03-03T12:27:22;102566.41;;;7.68;63.52
69574;BME280;62840;52.366;5.980;2023-03-03T12:30:08;102568.94;;;7.71;63.30
69574;BME280;62840;52.366;5.980;2023-03-03T12:32:57;102565.34;;;7.72;63.34
69574;BME280;62840;52.366;5.980;2023-03-03T12:35:48;102563.75;;;7.68;62.82
69574;BME280;62840;52.366;5.980;2023-03-03T12:38:39;102568.25;;;7.66;62.70
69574;BME280;62840;52.366;5.980;2023-03-03T12:41:33;102565.09;;;7.58;62.91
69574;BME280;62840;52.366;5.980;2023-03-03T12:44:25;102563.34;;;7.57;62.61
69574;BME280;62840;52.366;5.980;2023-03-03T12:47:14;102568.41;;;7.63;62.91
69574;BME280;62840;52.366;5.980;2023-03-03T12:49:56;102556.72;;;7.67;62.96
69574;BME280;62840;52.366;5.980;2023-03-03T12:53:00;102555.69;;;7.71;63.00
69574;BME280;62840;52.366;5.980;2023-03-03T12:55:48;102557.25;;;7.75;62.89
69574;BME280;62840;52.366;5.980;2023-03-03T12:58:33;102554.69;;;7.74;62.82
69574;BME280;62840;52.366;5.980;2023-03-03T13:01:17;102548.63;;;7.70;62.95
69574;BME280;62840;52.366;5.980;2023-03-03T13:04:00;102550.41;;;7.70;62.96
69574;BME280;62840;52.366;5.980;2023-03-03T13:06:36;102548.66;;;7.69;62.96
69574;BME280;62840;52.366;5.980;2023-03-03T13:09:21;102550.47;;;7.68;62.66
69574;BME280;62840;52.366;5.980;2023-03-03T13:12:13;102545.06;;;7.71;62.85
69574;BME280;62840;52.366;5.980;2023-03-03T13:14:56;102557.25;;;7.75;62.92
69574;BME280;62840;52.366;5.980;2023-03-03T13:17:34;102548.38;;;7.77;62.81
69574;BME280;62840;52.366;5.980;2023-03-03T13:20:18;102554.53;;;7.77;62.43
69574;BME280;62840;52.366;5.980;2023-03-03T13:22:58;102541.31;;;7.75;62.21
69574;BME280;62840;52.366;5.980;2023-03-03T13:25:43;102539.44;;;7.78;62.49
69574;BME280;62840;52.366;5.980;2023-03-03T13:28:20;102548.09;;;7.83;62.76
69574;BME280;62840;52.366;5.980;2023-03-03T13:30:57;102535.47;;;7.88;62.85
69574;BME280;62840;52.366;5.980;2023-03-03T13:33:33;102544.09;;;7.93;62.00
69574;BME280;62840;52.366;5.980;2023-03-03T13:36:02;102544.09;;;7.93;62.16
69574;BME280;62840;52.366;5.980;2023-03-03T13:38:36;102534.31;;;7.93;61.93
69574;BME280;62840;52.366;5.980;2023-03-03T13:41:09;102538.78;;;7.93;61.95
69574;BME280;62840;52.366;5.980;2023-03-03T13:43:49;102538.78;;;7.93;62.18
69574;BME280;62840;52.366;5.980;2023-03-03T13:46:24;102540.53;;;7.94;62.31
69574;BME280;62840;52.366;5.980;2023-03-03T13:49:23;102531.59;;;7.95;62.02
69574;BME280;62840;52.366;5.980;2023-03-03T13:52:10;102538.63;;;7.96;62.14
69574;BME280;62840;52.366;5.980;2023-03-03T13:54:52;102535.06;;;7.97;62.26
69574;BME280;62840;52.366;5.980;2023-03-03T13:57:44;102531.47;;;7.98;62.07
69574;BME280;62840;52.366;5.980;2023-03-03T14:00:36;102522.56;;;7.99;62.20
69574;BME280;62840;52.366;5.980;2023-03-03T14:03:23;102532.19;;;8.02;62.24
69574;BME280;62840;52.366;5.980;2023-03-03T14:06:03;102531.19;;;8.04;61.98
69574;BME280;62840;52.366;5.980;2023-03-03T14:08:49;102524.03;;;8.06;62.04
69574;BME280;62840;52.366;5.980;2023-03-03T14:11:28;102528.34;;;8.09;62.09
69574;BME280;62840;52.366;5.980;2023-03-03T14:14:03;102532.78;;;8.08;62.03
69574;BME280;62840;52.366;5.980;2023-03-03T14:16:49;102526.75;;;8.05;61.97
69574;BME280;62840;52.366;5.980;2023-03-03T14:19:20;102525.19;;;8.01;62.15
69574;BME280;62840;52.366;5.980;2023-03-03T14:22:05;102522.53;;;8.01;62.24
69574;BME280;62840;52.366;5.980;2023-03-03T14:24:58;102524.16;;;8.03;61.96
69574;BME280;62840;52.366;5.980;2023-03-03T14:27:33;102518.13;;;8.00;62.13
69574;BME280;62840;52.366;5.980;2023-03-03T14:30:25;102513.66;;;8.00;62.05
69574;BME280;62840;52.366;5.980;2023-03-03T14:33:01;102511.94;;;7.99;62.17
69574;BME280;62840;52.366;5.980;2023-03-03T14:35:43;102511.09;;;7.99;62.51
69574;BME280;62840;52.366;5.980;2023-03-03T14:38:19;102508.34;;;8.00;62.05